NZQN/ZQN METAR and TAF weather

Enter ICAO airport designator
Station Type Date Time Source
NZQN METAR UTC NOAA

Error!


Station Type Date Time Source
NZQN Decoded METAR UTC NOAA

Error!

Station Type Date Time Source
NZQN TAF 2019/02/20 17:03 UTC NOAA

TAF NZQN 201607Z 2017/2111 02005KT 9999 -SHRA SCT060
TEMPO 2019/2100 6000 SHRA
BECMG 2022/2100 24010KT
BECMG 2109/2111 02005KT


Example: see airport list